| time (UTC) | temp C | wind direction | speed KPH | gust KPH | rain 1hr cm | rain 24hr cm | rain mn cm | humidity % | barometer mb |
| 20260906234618 | 32 | 168 | 1.6 | 11.3 | 0.00 | 0.00 | 0.00 | 51 | 1008.6 |
| 20260906233019 | 32 | 161 | 0.0 | 9.7 | 0.00 | 0.00 | 0.00 | 51 | 1008.5 |
| 20260906231518 | 32 | 162 | 0.0 | 6.4 | 0.00 | 0.00 | 0.00 | 50 | 1008.4 |
| 20260906230015 | 32 | 234 | 4.8 | 16.1 | 0.00 | 0.00 | 0.00 | 52 | 1008.5 |
| 20260906224515 | 32 | 165 | 1.6 | 16.1 | 0.00 | 0.00 | 0.00 | 49 | 1008.6 |
| 20260906223020 | 32 | 142 | 6.4 | 19.3 | 0.00 | 0.00 | 0.00 | 48 | 1008.6 |
| 20260906221518 | 33 | 212 | 1.6 | 12.9 | 0.00 | 0.00 | 0.00 | 47 | 1008.8 |
| 20260906220030 | 32 | 138 | 6.4 | 19.3 | 0.00 | 0.00 | 0.00 | 48 | 1008.9 |
| 20260906214517 | 32 | 123 | 11.3 | 20.9 | 0.00 | 0.00 | 0.00 | 50 | 1009.0 |
| 20260906213012 | 32 | 163 | 1.6 | 11.3 | 0.00 | 0.00 | 0.00 | 49 | 1009.2 |
| 20260906211510 | 32 | 188 | 3.2 | 14.5 | 0.00 | 0.00 | 0.00 | 50 | 1009.3 |
| 20260906210007 | 33 | 149 | 3.2 | 14.5 | 0.00 | 0.00 | 0.00 | 47 | 1009.4 |
| 20260906204505 | 32 | 271 | 3.2 | 17.7 | 0.00 | 0.00 | 0.00 | 48 | 1009.7 |
| 20260906203009 | 33 | 162 | 6.4 | 12.9 | 0.00 | 0.00 | 0.00 | 46 | 1009.8 |
| 20260906201501 | 32 | 225 | 1.6 | 8.0 | 0.00 | 0.00 | 0.00 | 47 | 1010.0 |
| 20260906200057 | 32 | 150 | 1.6 | 9.7 | 0.00 | 0.00 | 0.00 | 49 | 1010.3 |
| 20260906194604 | 31 | 195 | 0.0 | 11.3 | 0.00 | 0.00 | 0.00 | 50 | 1010.5 |
| 20260906193055 | 31 | 155 | 0.0 | 9.7 | 0.00 | 0.00 | 0.00 | 49 | 1010.6 |
| 20260906191606 | 31 | 153 | 0.0 | 3.2 | 0.00 | 0.00 | 0.00 | 51 | 1010.7 |
| 20260906190050 | 31 | 222 | 0.0 | 3.2 | 0.00 | 0.00 | 0.00 | 53 | 1010.9 |
| 20260906184553 | 30 | 279 | 1.6 | 11.3 | 0.00 | 0.00 | 0.00 | 54 | 1011.1 |
| 20260906183048 | 30 | 224 | 0.0 | 9.7 | 0.00 | 0.00 | 0.00 | 52 | 1011.2 |
| 20260906181559 | 30 | 152 | 0.0 | 4.8 | 0.00 | 0.00 | 0.00 | 53 | 1011.4 |
| 20260906180043 | 30 | 238 | 6.4 | 12.9 | 0.00 | 0.00 | 0.00 | 55 | 1011.7 |
| 20260906174540 | 29 | 206 | 0.0 | 14.5 | 0.00 | 0.00 | 0.00 | 59 | 1012.0 |
| 20260906173039 | 28 | 231 | 3.2 | 14.5 | 0.00 | 0.00 | 0.00 | 60 | 1012.3 |
| 20260906171538 | 28 | 148 | 1.6 | 6.4 | 0.00 | 0.00 | 0.00 | 60 | 1012.5 |
| 20260906170036 | 27 | 158 | 0.0 | 8.0 | 0.00 | 0.00 | 0.00 | 62 | 1012.8 |
| 20260906164536 | 28 | 142 | 6.4 | 14.5 | 0.00 | 0.00 | 0.00 | 63 | 1012.7 |
| 20260906163044 | 28 | 132 | 0.0 | 8.0 | 0.00 | 0.00 | 0.00 | 64 | 1012.7 |
| 20260906161534 | 28 | 190 | 1.6 | 3.2 | 0.00 | 0.00 | 0.00 | 65 | 1012.7 |
| 20260906160028 | 27 | 229 | 0.0 | 1.6 | 0.00 | 0.00 | 0.00 | 71 | 1012.7 |
| 20260906154525 | 26 | 360 | 1.6 | 8.0 | 0.00 | 0.00 | 0.00 | 73 | 1012.7 |
| 20260906153025 | 26 | 360 | 3.2 | 8.0 | 0.00 | 0.00 | 0.00 | 77 | 1012.4 |
| 20260906151522 | 26 | 360 | 0.0 | 6.4 | 0.00 | 0.00 | 0.00 | 78 | 1012.2 |
| 20260906150028 | 25 | 360 | 1.6 | 9.7 | 0.00 | 0.00 | 0.00 | 79 | 1012.2 |
| 20260906144521 | 25 | 360 | 3.2 | 8.0 | 0.00 | 0.00 | 0.00 | 79 | 1012.1 |
| 20260906143021 | 25 | 360 | 3.2 | 9.7 | 0.00 | 0.00 | 0.00 | 79 | 1012.1 |
| 20260906141520 | 25 | 360 | 0.0 | 6.4 | 0.00 | 0.00 | 0.00 | 81 | 1011.8 |
| 20260906140019 | 25 | 360 | 0.0 | 1.6 | 0.00 | 0.00 | 0.00 | 81 | 1011.7 |
| 20260906134515 | 25 | 360 | 1.6 | 3.2 | 0.00 | 0.00 | 0.00 | 81 | 1011.5 |
| 20260906133013 | 25 | 360 | 0.0 | 4.8 | 0.00 | 0.00 | 0.00 | 83 | 1011.4 |
| 20260906131512 | 25 | 360 | 0.0 | 0.0 | 0.00 | 0.00 | 0.00 | 82 | 1011.1 |
| 20260906130010 | 24 | 360 | 0.0 | 0.0 | 0.00 | 0.00 | 0.00 | 82 | 1011.1 |
| 20260906124508 | 24 | 360 | 0.0 | 0.0 | 0.00 | 0.00 | 0.00 | 81 | 1010.9 |
| 20260906123012 | 24 | 360 | 0.0 | 0.0 | 0.00 | 0.00 | 0.00 | 81 | 1010.7 |
| 20260906121506 | 24 | 360 | 0.0 | 0.0 | 0.00 | 0.00 | 0.00 | 81 | 1010.4 |
| 20260906120004 | 24 | 360 | 0.0 | 0.0 | 0.00 | 0.00 | 0.00 | 80 | 1010.1 |
| 20260906114514 | 24 | 360 | 0.0 | 0.0 | 0.00 | 0.00 | 0.00 | 80 | 1010.0 |
| 20260906113003 | 24 | 360 | 0.0 | 0.0 | 0.00 | 0.00 | 0.00 | 80 | 1009.8 |
| 20260906111503 | 24 | 360 | 0.0 | 0.0 | 0.00 | 0.00 | 0.00 | 80 | 1009.9 |
| 20260906110004 | 24 | 360 | 0.0 | 3.2 | 0.00 | 0.00 | 0.00 | 80 | 1009.7 |
| 20260906104601 | 24 | 360 | 0.0 | 0.0 | 0.00 | 0.00 | 0.00 | 80 | 1009.5 |
| 20260906103100 | 25 | 360 | 0.0 | 3.2 | 0.00 | 0.00 | 0.00 | 80 | 1009.5 |
| 20260906101603 | 25 | 360 | 3.2 | 6.4 | 0.00 | 0.00 | 0.00 | 80 | 1009.4 |
| 20260906100057 | 25 | 360 | 0.0 | 3.2 | 0.00 | 0.00 | 0.00 | 79 | 1009.5 |
| 20260906094557 | 25 | 360 | 1.6 | 6.4 | 0.00 | 0.00 | 0.00 | 79 | 1009.4 |
| 20260906093055 | 25 | 360 | 3.2 | 9.7 | 0.00 | 0.00 | 0.00 | 78 | 1009.4 |
| 20260906091553 | 25 | 360 | 1.6 | 8.0 | 0.00 | 0.00 | 0.00 | 77 | 1009.5 |
| 20260906090050 | 26 | 360 | 4.8 | 12.9 | 0.00 | 0.00 | 0.00 | 76 | 1009.3 |
| 20260906084550 | 26 | 360 | 4.8 | 9.7 | 0.00 | 0.00 | 0.00 | 76 | 1009.3 |
| 20260906083049 | 26 | 360 | 6.4 | 14.5 | 0.00 | 0.00 | 0.00 | 76 | 1009.2 |
| 20260906081552 | 26 | 360 | 8.0 | 17.7 | 0.00 | 0.00 | 0.00 | 75 | 1009.3 |
| 20260906080046 | 26 | 360 | 9.7 | 17.7 | 0.00 | 0.00 | 0.00 | 75 | 1009.4 |
| 20260906074546 | 26 | 360 | 9.7 | 16.1 | 0.00 | 0.00 | 0.00 | 75 | 1009.6 |
| 20260906073045 | 26 | 360 | 3.2 | 12.9 | 0.00 | 0.00 | 0.00 | 75 | 1009.8 |
| 20260906071540 | 26 | 360 | 6.4 | 16.1 | 0.00 | 0.00 | 0.00 | 75 | 1009.9 |
| 20260906070039 | 26 | 360 | 3.2 | 8.0 | 0.00 | 0.00 | 0.00 | 75 | 1010.0 |
| 20260906064539 | 26 | 360 | 1.6 | 6.4 | 0.00 | 0.00 | 0.00 | 76 | 1010.2 |
| 20260906063035 | 26 | 360 | 3.2 | 8.0 | 0.00 | 0.00 | 0.00 | 75 | 1010.2 |
| 20260906061534 | 26 | 360 | 0.0 | 3.2 | 0.00 | 0.00 | 0.00 | 73 | 1010.2 |
| 20260906060036 | 26 | 360 | 0.0 | 4.8 | 0.00 | 0.00 | 0.00 | 73 | 1010.3 |
| 20260906054530 | 26 | 360 | 0.0 | 6.4 | 0.00 | 0.00 | 0.00 | 73 | 1010.4 |
| 20260906053032 | 26 | 360 | 0.0 | 1.6 | 0.00 | 0.00 | 0.00 | 73 | 1010.4 |
| 20260906051528 | 26 | 360 | 0.0 | 6.4 | 0.00 | 0.00 | 0.00 | 72 | 1010.6 |
| 20260906050025 | 26 | 360 | 1.6 | 6.4 | 0.00 | 0.00 | 0.00 | 71 | 1010.7 |
| 20260906044625 | 26 | 360 | 0.0 | 6.4 | 0.00 | 0.00 | 0.00 | 70 | 1010.7 |
| 20260906043026 | 27 | 360 | 1.6 | 8.0 | 0.00 | 0.00 | 0.00 | 68 | 1010.6 |
| 20260906041529 | 27 | 360 | 0.0 | 8.0 | 0.00 | 0.00 | 0.00 | 66 | 1010.4 |
| 20260906040032 | 27 | 360 | 8.0 | 17.7 | 0.00 | 0.00 | 0.00 | 65 | 1010.5 |
| 20260906034528 | 28 | 360 | 8.0 | 20.9 | 0.00 | 0.00 | 0.00 | 63 | 1010.6 |
| 20260906033022 | 28 | 360 | 17.7 | 24.1 | 0.00 | 0.00 | 0.00 | 61 | 1010.5 |
| 20260906031534 | 28 | 360 | 11.3 | 20.9 | 0.00 | 0.00 | 0.00 | 60 | 1010.3 |
| 20260906030021 | 29 | 360 | 11.3 | 20.9 | 0.00 | 0.00 | 0.00 | 60 | 1009.9 |
| 20260906024520 | 29 | 360 | 9.7 | 19.3 | 0.00 | 0.00 | 0.00 | 59 | 1009.7 |
| 20260906023020 | 29 | 360 | 9.7 | 22.5 | 0.00 | 0.00 | 0.00 | 58 | 1009.3 |
| 20260906021522 | 30 | 360 | 11.3 | 17.7 | 0.00 | 0.00 | 0.00 | 59 | 1009.2 |
| 20260906020019 | 30 | 360 | 8.0 | 14.5 | 0.00 | 0.00 | 0.00 | 58 | 1008.8 |
| 20260906014524 | 30 | 360 | 8.0 | 17.7 | 0.00 | 0.00 | 0.00 | 56 | 1008.6 |
| 20260906013119 | 30 | 137 | 6.4 | 17.7 | 0.00 | 0.00 | 0.00 | 55 | 1008.5 |
| 20260906011518 | 31 | 360 | 9.7 | 17.7 | 0.00 | 0.00 | 0.00 | 51 | 1008.3 |
| 20260906010017 | 32 | 126 | 1.6 | 8.0 | 0.00 | 0.00 | 0.00 | 45 | 1008.2 |
| 20260906004517 | 32 | 146 | 3.2 | 8.0 | 0.00 | 0.00 | 0.00 | 44 | 1008.3 |
| 20260906003017 | 32 | 150 | 1.6 | 11.3 | 0.00 | 0.00 | 0.00 | 42 | 1008.2 |
| 20260906001515 | 33 | 153 | 4.8 | 16.1 | 0.00 | 0.00 | 0.00 | 41 | 1008.4 |
| 20260906000016 | 33 | 119 | 8.0 | 14.5 | 0.00 | 0.00 | 0.00 | 41 | 1008.3 |